Latest Weather Observations for Cooma Airport

IDN60901

Issued at 2:15 pm EST Saturday 19 April 2014 (issued every 10 minutes, with the page automatically refreshed every 10 minutes)

About weather observations | Map of Canberra area stations | Latest observations for Canberra area | Other Formats
Station Details ID: 070217 Name: COOMA AIRPORT AWS Lat: -36.29 Lon: 148.97 Height: 930.0 m
Data from the previous 72 hours. | See also: Recent months for locations in Aust Capital Territory
Date/Time
EST
Tmp

°C
App
Tmp
°C
Dew
Point
°C
Rel
Hum
%
Delta-T

°C
Wind Press
QNH
hPa
Press
MSL
hPa
Rain
since
9 am
mm
Dir
 
Spd
km/h
Gust
km/h
Spd
kts
Gust
kts
19/02:00pm 11.0 6.7 3.1 58 3.6 SSW 15 22 8 12 1016.4 - 0.0
19/01:30pm 10.8 7.0 4.0 63 3.2 SSW 13 24 7 13 1016.5 - 0.0
19/01:00pm 10.1 5.7 2.7 60 3.4 S 15 22 8 12 1017.0 - 0.0
19/12:30pm 10.2 5.9 3.3 62 3.2 SW 15 22 8 12 1017.4 - 0.0
19/12:00pm 9.7 5.4 3.4 65 2.9 SSW 15 28 8 15 1017.7 1016.6 0.0
19/11:30am 9.3 4.0 2.9 64 2.9 SSW 20 30 11 16 1018.0 - 0.0
19/11:00am 9.3 4.1 3.7 68 2.6 SSW 20 32 11 17 1018.3 - 0.0
19/10:30am 8.3 2.7 1.5 62 3.0 SSW 20 28 11 15 1018.6 - 0.0
19/10:00am 8.1 1.8 1.7 64 2.8 SSW 24 33 13 18 1018.3 - 0.0
19/09:30am 7.7 1.0 1.3 64 2.7 SW 26 39 14 21 1018.4 - 0.0
19/09:00am 7.0 -0.9 0.9 65 2.6 SW 32 41 17 22 1018.3 1017.2 0.0
19/08:30am 7.3 0.7 2.0 69 2.3 SW 26 35 14 19 1018.2 - 0.0
19/08:00am 6.6 0.3 1.5 70 2.2 SW 24 30 13 16 1018.2 - 0.0
19/07:30am 6.0 -0.7 1.5 73 1.9 SW 26 35 14 19 1017.9 - 0.0
19/07:00am 5.6 -1.9 1.5 75 1.7 SSW 30 43 16 23 1017.4 - 0.0
19/06:30am 5.4 -0.5 1.7 77 1.6 SSW 22 28 12 15 1017.5 - 0.0
19/06:00am 4.9 -0.6 1.7 80 1.3 SW 20 26 11 14 1017.3 1016.2 0.0
19/05:30am 4.8 -0.8 1.3 78 1.5 SW 20 26 11 14 1017.1 - 0.0
19/05:00am 5.5 -0.4 1.4 75 1.7 WSW 22 28 12 15 1017.0 - 0.0
19/04:30am 5.3 0.0 1.6 77 1.6 SW 19 24 10 13 1017.0 - 0.0
19/04:00am 4.4 -0.1 2.1 85 1.0 SW 15 19 8 10 1017.0 - 0.0
19/03:30am 4.4 -0.9 1.6 82 1.2 WSW 19 30 10 16 1017.0 - 0.0
19/03:00am 1.5 -2.5 0.8 95 0.3 SW 11 11 6 6 1017.0 1015.8 0.0
19/02:30am 2.1 -1.4 1.4 95 0.3 W 9 11 5 6 1017.0 - 0.0
19/02:00am 1.9 -1.6 1.0 94 0.4 SSW 9 13 5 7 1017.1 - 0.0
19/01:30am 3.8 -0.3 2.2 89 0.7 WSW 13 17 7 9 1017.2 - 0.0
19/01:00am 4.4 -0.4 2.6 88 0.8 WSW 17 20 9 11 1017.2 - 0.0
19/12:30am 5.5 0.4 3.0 84 1.1 SW 19 20 10 11 1017.1 - 0.0
19/12:00am 6.4 1.2 3.4 81 1.3 SSW 20 28 11 15 1016.9 1015.7 0.0
 
Date/Time
EST
Tmp

°C
App
Tmp
°C
Dew
Point
°C
Rel
Hum
%
Delta-T

°C
Wind Press
QNH
hPa
Press
MSL
hPa
Rain
since
9 am
mm
Dir
 
Spd
km/h
Gust
km/h
Spd
kts
Gust
kts
18/11:30pm 6.9 1.3 3.7 80 1.4 SW 22 30 12 16 1017.0 - 0.0
18/11:00pm 7.1 2.2 4.2 82 1.3 SSW 19 24 10 13 1017.2 - 0.0
18/10:30pm 7.3 2.0 4.8 84 1.2 SW 22 26 12 14 1017.1 - 0.0
18/10:00pm 7.4 3.5 5.4 87 0.9 SW 15 19 8 10 1017.3 - 0.0
18/09:30pm 7.4 2.6 4.9 84 1.2 SSW 19 24 10 13 1017.3 - 0.0
18/09:00pm 7.4 3.5 5.2 86 1.0 SSW 15 20 8 11 1017.2 1016.1 0.0
18/08:36pm 7.5 1.5 5.1 85 1.1 S 26 35 14 19 1017.0 - 0.0
18/08:30pm 7.6 1.6 5.4 86 1.0 S 26 35 14 19 1016.9 - 0.0
18/08:00pm 8.0 3.1 6.9 93 0.5 SSW 22 32 12 17 1016.5 - 0.0
18/07:30pm 8.3 2.3 7.2 93 0.5 S 28 37 15 20 1016.2 - 0.0
18/07:14pm 8.6 1.9 7.2 91 0.7 S 32 41 17 22 1015.9 - 0.0
18/07:00pm 9.8 2.1 7.2 84 1.3 S 37 48 20 26 1015.0 - 0.0
18/06:58pm 10.5 3.4 8.1 85 1.2 S 35 48 19 26 1015.2 - 0.0
18/06:30pm 11.0 8.3 7.3 78 1.9 S 11 13 6 7 1014.9 - 0.0
18/06:00pm 11.3 9.2 6.6 73 2.3 WSW 7 11 4 6 1014.7 1013.5 0.0
18/05:30pm 11.8 9.3 6.5 70 2.6 SSW 9 11 5 6 1014.5 - 0.0
18/05:00pm 12.7 10.0 5.6 62 3.5 W 9 13 5 7 1014.0 - 0.0
18/04:30pm 13.3 8.4 5.0 57 4.1 NW 20 24 11 13 1013.7 - 0.0
18/04:00pm 13.5 9.2 5.4 58 4.0 WSW 17 22 9 12 1014.4 - 0.0
18/03:30pm 14.4 9.5 5.2 54 4.6 WSW 20 28 11 15 1014.5 - 0.0
18/03:00pm 15.4 8.7 5.6 52 4.9 WSW 30 39 16 21 1014.6 1013.4 0.0
18/02:30pm 14.3 8.3 5.4 55 4.4 WSW 26 39 14 21 1014.5 - 0.0
18/02:00pm 15.3 8.8 4.7 49 5.2 W 28 46 15 25 1014.4 - 0.0
18/01:30pm 16.0 10.0 5.3 49 5.4 W 26 39 14 21 1014.2 - 0.0
18/01:00pm 15.6 10.3 5.2 50 5.2 WNW 22 33 12 18 1014.6 - 0.0
18/12:30pm 14.8 9.9 5.3 53 4.7 WSW 20 32 11 17 1015.1 - 0.0
18/12:00pm 16.0 10.2 6.2 52 5.0 W 26 33 14 18 1015.7 1014.5 0.0
18/11:30am 15.8 11.0 7.3 57 4.4 SW 22 35 12 19 1015.9 - 0.0
18/11:00am 14.3 9.4 6.9 61 3.8 SW 22 32 12 17 1016.1 - 0.0
18/10:30am 14.4 12.6 7.9 65 3.4 SSW 7 15 4 8 1016.4 - 0.0
18/10:00am 12.9 11.3 8.0 72 2.5 NE 6 7 3 4 1016.8 - 0.0
18/09:30am 11.1 9.1 8.5 84 1.3 NE 9 11 5 6 1017.1 - 0.0
18/09:00am 8.7 5.8 6.5 86 1.1 NNE 11 13 6 7 1017.4 1016.3 0.0
18/08:30am 8.4 5.6 6.9 90 0.7 NNE 11 13 6 7 1017.5 - 0.0
18/08:00am 6.8 4.7 6.7 99 0.0 NNE 7 9 4 5 1017.7 - 0.0
18/07:30am 3.6 1.1 3.5 99 0.0 NNE 6 7 3 4 1017.7 - 0.0
18/07:00am 1.8 -1.2 1.7 99 0.0 NNE 7 9 4 5 1017.7 - 0.0
18/06:30am 1.6 -1.5 1.5 99 0.0 N 7 7 4 4 1017.7 - 0.0
18/06:00am 1.1 -0.7 1.0 99 0.0 CALM 0 0 0 0 1017.5 1016.4 0.0
18/05:30am 1.0 -0.8 0.9 99 0.0 CALM 0 0 0 0 1017.9 - 0.0
18/05:00am 1.0 -0.8 0.9 99 0.0 CALM 0 0 0 0 1018.0 - 0.0
18/04:30am 1.0 -1.7 0.6 97 0.2 N 4 7 2 4 1018.0 - 0.0
18/04:00am 1.5 -1.0 1.4 99 0.0 N 4 6 2 3 1018.1 - 0.0
18/03:30am 1.6 -1.3 1.5 99 0.0 N 6 7 3 4 1018.2 - 0.0
18/03:00am 1.4 -1.8 0.8 96 0.2 N 7 9 4 5 1018.4 1017.3 0.0
18/02:30am 2.7 1.1 2.3 97 0.2 CALM 0 0 0 0 1018.6 - 0.0
18/02:00am 2.5 0.9 2.4 99 0.0 CALM 0 0 0 0 1018.9 - 0.0
18/01:30am 2.0 -0.9 1.6 97 0.2 N 6 7 3 4 1019.2 - 0.0
18/01:00am 2.4 -0.4 2.0 97 0.2 N 6 7 3 4 1019.5 - 0.0
18/12:30am 2.6 -0.4 1.9 95 0.3 N 7 9 4 5 1019.7 - 0.0
18/12:00am 2.5 0.8 1.8 95 0.3 CALM 0 0 0 0 1020.0 1019.0 0.0
 
Date/Time
EST
Tmp

°C
App
Tmp
°C
Dew
Point
°C
Rel
Hum
%
Delta-T

°C
Wind Press
QNH
hPa
Press
MSL
hPa
Rain
since
9 am
mm
Dir
 
Spd
km/h
Gust
km/h
Spd
kts
Gust
kts
17/11:30pm 2.8 1.1 2.1 95 0.3 CALM 0 0 0 0 1020.3 - 0.0
17/11:00pm 3.0 1.3 1.7 91 0.5 CALM 0 0 0 0 1020.6 - 0.0
17/10:30pm 3.7 2.2 2.8 94 0.4 CALM 0 0 0 0 1020.9 - 0.0
17/10:00pm 4.3 1.5 3.4 94 0.4 N 7 9 4 5 1021.1 - 0.0
17/09:30pm 4.2 2.6 2.7 90 0.6 CALM 0 0 0 0 1020.9 - 0.0
17/09:00pm 4.6 3.2 3.4 92 0.5 CALM 0 0 0 0 1021.0 1020.0 0.0
17/08:30pm 5.0 3.6 3.3 89 0.7 CALM 0 0 0 0 1021.0 - 0.0
17/08:00pm 5.7 4.4 4.3 91 0.6 CALM 0 0 0 0 1020.9 - 0.0
17/07:30pm 6.4 5.2 4.6 88 0.8 CALM 0 0 0 0 1020.8 - 0.0
17/07:00pm 7.4 6.3 4.9 84 1.2 CALM 0 0 0 0 1020.7 - 0.0
17/06:30pm 8.4 7.2 4.6 77 1.8 CALM 0 0 0 0 1020.6 - 0.0
17/06:00pm 10.4 9.3 5.2 70 2.5 CALM 0 0 0 0 1020.5 1019.4 0.0
17/05:30pm 11.3 9.1 6.4 72 2.4 S 7 9 4 5 1020.4 - 0.0
17/05:00pm 13.6 10.6 6.2 61 3.7 SSW 11 13 6 7 1020.4 - 0.0
17/04:30pm 14.5 10.9 4.8 52 4.8 S 13 19 7 10 1020.3 - 0.0
17/04:00pm 15.0 11.3 4.7 50 5.1 SSW 13 17 7 9 1020.4 - 0.0
17/03:30pm 15.2 10.8 4.6 49 5.2 SSW 17 24 9 13 1020.5 - 0.0
17/03:00pm 15.0 10.6 2.5 43 5.9 SSW 15 22 8 12 1020.5 1019.4 0.0
17/02:30pm 14.9 10.5 4.6 50 5.1 S 17 24 9 13 1020.5 - 0.0
17/02:00pm 14.7 10.8 3.5 47 5.4 S 13 19 7 10 1020.6 - 0.0
17/01:30pm 14.8 11.1 4.5 50 5.0 SSW 13 20 7 11 1020.7 - 0.0
17/01:00pm 14.6 10.4 5.7 55 4.5 S 17 28 9 15 1021.0 - 0.0
17/12:30pm 14.5 11.1 5.8 56 4.4 SSW 13 19 7 10 1021.4 - 0.0
17/12:00pm 14.1 10.7 6.0 58 4.1 SW 13 20 7 11 1021.7 1020.6 0.0
17/11:30am 13.5 10.1 5.9 60 3.8 SSW 13 20 7 11 1022.0 - 0.0
17/11:00am 12.0 7.8 5.6 65 3.1 SSW 17 22 9 12 1022.2 - 0.0
17/10:30am 12.6 8.8 7.5 71 2.6 SSW 17 24 9 13 1022.2 - 0.0
17/10:00am 11.8 7.6 7.3 74 2.3 SW 19 28 10 15 1022.5 - 0.0
17/09:30am 11.0 8.0 7.5 79 1.8 SSW 13 17 7 9 1022.6 - 0.0
17/09:00am 10.3 8.5 7.9 85 1.2 WSW 7 11 4 6 1022.6 1021.5 0.0
17/08:30am 8.5 6.6 7.7 95 0.4 S 7 7 4 4 1022.5 - 0.0
17/08:00am 6.8 6.0 6.7 99 0.0 CALM 0 0 0 0 1022.3 - 0.0
17/07:30am 3.7 2.3 3.6 99 0.0 CALM 0 0 0 0 1022.0 - 0.0
17/07:00am 3.0 1.5 2.9 99 0.0 CALM 0 4 0 2 1021.7 - 0.0
17/06:30am 2.1 0.4 1.7 97 0.2 CALM 0 0 0 0 1021.2 - 0.0
17/06:00am 3.6 1.8 3.5 99 0.0 NNW 2 7 1 4 1021.1 1020.1 0.0
17/05:30am 2.6 1.0 2.5 99 0.0 CALM 0 0 0 0 1020.9 - 0.0
17/05:00am 3.3 1.8 3.2 99 0.0 CALM 0 0 0 0 1020.6 - 0.0
17/04:30am 2.6 1.0 2.5 99 0.0 CALM 0 0 0 0 1020.6 - 0.0
17/04:00am 2.1 0.4 2.0 99 0.0 CALM 0 0 0 0 1020.5 - 0.0
17/03:30am 2.5 0.9 2.4 99 0.0 CALM 0 0 0 0 1020.4 - 0.0
17/03:00am 2.9 1.4 2.8 99 0.0 CALM 0 0 0 0 1020.4 1019.3 0.0
17/02:30am 3.0 1.4 2.7 98 0.1 CALM 0 0 0 0 1020.4 - 0.0
17/02:00am 3.5 2.0 2.9 96 0.3 CALM 0 0 0 0 1020.7 - 0.0
17/01:30am 4.6 3.3 4.2 97 0.2 CALM 0 0 0 0 1020.8 - 0.0
17/01:00am 4.5 3.2 3.9 96 0.3 CALM 0 0 0 0 1021.1 - 0.0
17/12:30am 5.1 3.9 4.5 96 0.3 CALM 0 0 0 0 1021.1 - 0.0
17/12:00am 5.2 3.2 4.6 96 0.3 S 4 9 2 5 1021.6 1020.5 0.0
 
Date/Time
EST
Tmp

°C
App
Tmp
°C
Dew
Point
°C
Rel
Hum
%
Delta-T

°C
Wind Press
QNH
hPa
Press
MSL
hPa
Rain
since
9 am
mm
Dir
 
Spd
km/h
Gust
km/h
Spd
kts
Gust
kts
16/11:30pm 6.3 4.2 5.7 96 0.3 WNW 6 7 3 4 1021.5 - 0.0
16/11:00pm 6.5 4.8 5.9 96 0.3 NE 4 7 2 4 1021.7 - 0.0
16/10:30pm 5.8 4.7 5.2 96 0.3 CALM 0 0 0 0 1021.8 - 0.0
16/10:00pm 5.3 4.0 4.0 91 0.6 CALM 0 0 0 0 1021.8 - 0.0
16/09:30pm 6.5 3.2 4.5 87 0.9 NNE 11 11 6 6 1021.8 - 0.0
16/09:00pm 7.6 4.8 5.2 85 1.1 N 9 11 5 6 1021.6 1020.5 0.0
16/08:30pm 6.6 3.6 3.9 83 1.2 NNE 9 11 5 6 1021.2 - 0.0
16/08:00pm 8.7 5.9 5.1 78 1.7 N 9 11 5 6 1021.1 - 0.0
16/07:30pm 9.5 6.8 5.5 76 1.9 NE 9 13 5 7 1020.8 - 0.0
16/07:00pm 8.6 7.5 5.0 78 1.7 CALM 0 0 0 0 1020.7 - 0.0
16/06:30pm 8.9 8.1 6.3 84 1.3 CALM 0 0 0 0 1020.4 - 0.0
16/06:00pm 10.5 9.6 5.9 73 2.2 CALM 0 0 0 0 1020.2 1019.1 0.0
16/05:30pm 11.5 9.5 7.2 75 2.2 S 7 9 4 5 1020.0 - 0.0
16/05:00pm 13.1 10.1 5.8 61 3.6 S 11 15 6 8 1019.8 - 0.0
16/04:30pm 13.9 10.6 6.3 60 3.8 S 13 17 7 9 1019.6 - 0.0
16/04:00pm 14.3 11.3 6.2 58 4.1 S 11 15 6 8 1019.6 - 0.0
16/03:30pm 14.3 11.0 6.2 58 4.1 SSE 13 17 7 9 1019.6 - 0.0
16/03:00pm 14.2 10.9 6.3 59 4.0 SSE 13 20 7 11 1019.8 1018.7 0.0
16/02:30pm 13.8 10.5 6.2 60 3.8 S 13 20 7 11 1020.0 - 0.0

Latest Capital City Observations: Canberra | Sydney | Melbourne | Brisbane | Adelaide | Perth | Hobart | Darwin

Other Formats:

Comma delimited format used in spreadsheet applications
http://www.bom.gov.au/fwo/IDN60903/IDN60903.94921.axf

JavaScript Object Notation format (JSON) in row-major order
http://www.bom.gov.au/fwo/IDN60903/IDN60903.94921.json